weather.gov     
National Weather Service

Terminal Aerodrome Forecast
NWS Homepage
This page is being discontinued on March 12, 2014.
The same data is available at this site. Please update your bookmarks.
Thank you, and we apologize for the inconvenience.
Please send an email to SR-SRH.Webmaster@noaa.gov with any concerns.


Current Version
Previous Version:    01  02  03  04  05  06  07  08  09  10  11  12  13  14  15  16  17  18  19  20  21  22  23  24  25  26  27  28  29  30  
   31  32  33  34  35  36  37  38  39  40  41  42  43  44  45  46  47  48  49  50  51  52  53  54  55  56  57  58  59  60  
[Printable]
682
FTUS45 KBOU 011141
TAFDEN
TAF
KDEN 011141Z 0112/0218 16008KT P6SM SCT110 BKN220
     FM011600 12011KT P6SM FEW080 BKN110 BKN200
     FM012000 05013KT P6SM VCTS SCT060CB BKN080
      TEMPO 0121/0124 5SM SHRA BR BKN045 OVC060
     FM020000 01014G22KT 6SM -SHRA BR SCT040 BKN050
      TEMPO 0200/0204 3SM SHRA BR BKN025 OVC040
     FM020600 34008KT P6SM VCSH SCT045 BKN060 PROB30 0206/0208 -SHRA
      BKN040
     FM021200 29006KT P6SM VCFG FEW050 SCT070 BKN120
     FM021600 23008KT P6SM FEW120 SCT200=




682
FTUS45 KBOU 011141
TAFDEN
TAF
KDEN 011141Z 0112/0218 16008KT P6SM SCT110 BKN220
     FM011600 12011KT P6SM FEW080 BKN110 BKN200
     FM012000 05013KT P6SM VCTS SCT060CB BKN080
      TEMPO 0121/0124 5SM SHRA BR BKN045 OVC060
     FM020000 01014G22KT 6SM -SHRA BR SCT040 BKN050
      TEMPO 0200/0204 3SM SHRA BR BKN025 OVC040
     FM020600 34008KT P6SM VCSH SCT045 BKN060 PROB30 0206/0208 -SHRA
      BKN040
     FM021200 29006KT P6SM VCFG FEW050 SCT070 BKN120
     FM021600 23008KT P6SM FEW120 SCT200=


U.S. Dept. of Commerce
NOAA National Weather Service
1325 East West Highway
Silver Spring, MD 20910
E-mail: w-nws.webmaster@noaa.gov
Page last modified: May 16, 2007
NATIONAL WEATHER SERVICE: for Safety, for Work, for Fun - FOR LIFE